sensor_id;sensor_type;location;lat;lon;timestamp;temperature;humidity
80234;DHT22;69542;42.138;24.742;2023-04-20T00:02:09;21.50;34.50
80234;DHT22;69542;42.138;24.742;2023-04-20T00:04:40;21.50;34.40
80234;DHT22;69542;42.138;24.742;2023-04-20T00:07:05;21.50;34.50
80234;DHT22;69542;42.138;24.742;2023-04-20T00:09:32;21.50;34.50
80234;DHT22;69542;42.138;24.742;2023-04-20T00:12:00;21.50;34.50
80234;DHT22;69542;42.138;24.742;2023-04-20T00:14:26;21.50;34.50
80234;DHT22;69542;42.138;24.742;2023-04-20T00:16:54;21.50;34.50
80234;DHT22;69542;42.138;24.742;2023-04-20T00:19:20;21.50;34.50
80234;DHT22;69542;42.138;24.742;2023-04-20T00:21:47;21.50;34.50
80234;DHT22;69542;42.138;24.742;2023-04-20T00:24:13;21.50;34.50
80234;DHT22;69542;42.138;24.742;2023-04-20T00:26:39;21.50;34.50
80234;DHT22;69542;42.138;24.742;2023-04-20T00:29:05;21.50;34.50
80234;DHT22;69542;42.138;24.742;2023-04-20T00:31:31;21.40;34.50
80234;DHT22;69542;42.138;24.742;2023-04-20T00:33:57;21.50;34.50
80234;DHT22;69542;42.138;24.742;2023-04-20T00:36:23;21.40;34.40
80234;DHT22;69542;42.138;24.742;2023-04-20T00:38:48;21.40;34.50
80234;DHT22;69542;42.138;24.742;2023-04-20T00:41:14;21.50;34.50
80234;DHT22;69542;42.138;24.742;2023-04-20T00:43:51;21.50;34.50
80234;DHT22;69542;42.138;24.742;2023-04-20T00:46:17;21.50;34.50
80234;DHT22;69542;42.138;24.742;2023-04-20T00:48:45;21.40;34.40
80234;DHT22;69542;42.138;24.742;2023-04-20T00:51:11;21.40;34.40
80234;DHT22;69542;42.138;24.742;2023-04-20T00:53:40;21.40;34.50
80234;DHT22;69542;42.138;24.742;2023-04-20T00:56:06;21.40;34.40
80234;DHT22;69542;42.138;24.742;2023-04-20T00:58:33;21.40;34.40
80234;DHT22;69542;42.138;24.742;2023-04-20T01:01:01;21.40;34.40
80234;DHT22;69542;42.138;24.742;2023-04-20T01:03:27;21.40;34.50
80234;DHT22;69542;42.138;24.742;2023-04-20T01:05:56;21.40;34.40
80234;DHT22;69542;42.138;24.742;2023-04-20T01:08:28;21.40;34.50
80234;DHT22;69542;42.138;24.742;2023-04-20T01:10:54;21.40;34.50
80234;DHT22;69542;42.138;24.742;2023-04-20T01:13:20;21.40;34.40
80234;DHT22;69542;42.138;24.742;2023-04-20T01:15:47;21.40;34.50
80234;DHT22;69542;42.138;24.742;2023-04-20T01:18:15;21.40;34.40
80234;DHT22;69542;42.138;24.742;2023-04-20T01:20:43;21.40;34.50
80234;DHT22;69542;42.138;24.742;2023-04-20T01:23:09;21.40;34.50
80234;DHT22;69542;42.138;24.742;2023-04-20T01:25:38;21.40;34.40
80234;DHT22;69542;42.138;24.742;2023-04-20T01:28:07;21.40;34.50
80234;DHT22;69542;42.138;24.742;2023-04-20T01:30:35;21.40;34.50
80234;DHT22;69542;42.138;24.742;2023-04-20T01:33:01;21.40;34.60
80234;DHT22;69542;42.138;24.742;2023-04-20T01:35:27;21.40;34.50
80234;DHT22;69542;42.138;24.742;2023-04-20T01:37:53;21.40;34.50
80234;DHT22;69542;42.138;24.742;2023-04-20T01:40:18;21.40;34.60
80234;DHT22;69542;42.138;24.742;2023-04-20T01:42:44;21.40;34.50
80234;DHT22;69542;42.138;24.742;2023-04-20T01:45:10;21.40;34.50
80234;DHT22;69542;42.138;24.742;2023-04-20T01:47:38;21.40;34.50
80234;DHT22;69542;42.138;24.742;2023-04-20T01:50:04;21.40;34.50
80234;DHT22;69542;42.138;24.742;2023-04-20T01:52:30;21.40;34.50
80234;DHT22;69542;42.138;24.742;2023-04-20T01:54:56;21.40;34.50
80234;DHT22;69542;42.138;24.742;2023-04-20T01:57:22;21.40;34.50
80234;DHT22;69542;42.138;24.742;2023-04-20T01:59:48;21.40;34.50
80234;DHT22;69542;42.138;24.742;2023-04-20T02:02:13;21.40;34.50
80234;DHT22;69542;42.138;24.742;2023-04-20T02:04:39;21.40;34.50
80234;DHT22;69542;42.138;24.742;2023-04-20T02:07:05;21.40;34.50
80234;DHT22;69542;42.138;24.742;2023-04-20T02:09:31;21.40;34.50
80234;DHT22;69542;42.138;24.742;2023-04-20T02:11:56;21.40;34.50
80234;DHT22;69542;42.138;24.742;2023-04-20T02:14:22;21.40;34.50
80234;DHT22;69542;42.138;24.742;2023-04-20T02:16:48;21.40;34.50
80234;DHT22;69542;42.138;24.742;2023-04-20T02:19:14;21.40;34.50
80234;DHT22;69542;42.138;24.742;2023-04-20T02:21:40;21.30;34.40
80234;DHT22;69542;42.138;24.742;2023-04-20T02:24:06;21.40;34.40
80234;DHT22;69542;42.138;24.742;2023-04-20T02:26:31;21.40;34.40
80234;DHT22;69542;42.138;24.742;2023-04-20T02:28:57;21.40;34.40
80234;DHT22;69542;42.138;24.742;2023-04-20T02:31:23;21.40;34.40
80234;DHT22;69542;42.138;24.742;2023-04-20T02:33:49;21.40;34.40
80234;DHT22;69542;42.138;24.742;2023-04-20T02:36:17;21.30;34.30
80234;DHT22;69542;42.138;24.742;2023-04-20T02:38:42;21.40;34.40
80234;DHT22;69542;42.138;24.742;2023-04-20T02:41:08;21.40;34.40
80234;DHT22;69542;42.138;24.742;2023-04-20T02:43:34;21.40;34.40
80234;DHT22;69542;42.138;24.742;2023-04-20T02:46:00;21.40;34.40
80234;DHT22;69542;42.138;24.742;2023-04-20T02:48:26;21.30;34.30
80234;DHT22;69542;42.138;24.742;2023-04-20T02:50:54;21.30;34.30
80234;DHT22;69542;42.138;24.742;2023-04-20T02:53:21;21.40;34.40
80234;DHT22;69542;42.138;24.742;2023-04-20T02:55:47;21.30;34.30
80234;DHT22;69542;42.138;24.742;2023-04-20T02:58:12;21.40;34.40
80234;DHT22;69542;42.138;24.742;2023-04-20T03:00:38;21.30;35.40
80234;DHT22;69542;42.138;24.742;2023-04-20T03:03:04;21.40;34.30
80234;DHT22;69542;42.138;24.742;2023-04-20T03:05:30;21.40;34.40
80234;DHT22;69542;42.138;24.742;2023-04-20T03:07:55;21.30;34.30
80234;DHT22;69542;42.138;24.742;2023-04-20T03:10:21;21.30;34.30
80234;DHT22;69542;42.138;24.742;2023-04-20T03:12:47;21.30;34.30
80234;DHT22;69542;42.138;24.742;2023-04-20T03:15:13;21.30;34.30
80234;DHT22;69542;42.138;24.742;2023-04-20T03:17:40;21.30;34.30
80234;DHT22;69542;42.138;24.742;2023-04-20T03:20:06;21.30;34.20
80234;DHT22;69542;42.138;24.742;2023-04-20T03:22:33;21.30;34.20
80234;DHT22;69542;42.138;24.742;2023-04-20T03:24:59;21.30;34.20
80234;DHT22;69542;42.138;24.742;2023-04-20T03:27:25;21.30;34.20
80234;DHT22;69542;42.138;24.742;2023-04-20T03:29:50;21.40;34.20
80234;DHT22;69542;42.138;24.742;2023-04-20T03:32:17;21.40;34.20
80234;DHT22;69542;42.138;24.742;2023-04-20T03:34:42;21.30;34.20
80234;DHT22;69542;42.138;24.742;2023-04-20T03:37:08;21.40;34.20
80234;DHT22;69542;42.138;24.742;2023-04-20T03:39:34;21.40;34.10
80234;DHT22;69542;42.138;24.742;2023-04-20T03:42:00;21.40;34.10
80234;DHT22;69542;42.138;24.742;2023-04-20T03:44:26;21.40;34.10
80234;DHT22;69542;42.138;24.742;2023-04-20T03:46:51;21.40;34.10
80234;DHT22;69542;42.138;24.742;2023-04-20T03:49:22;21.40;34.00
80234;DHT22;69542;42.138;24.742;2023-04-20T03:51:49;21.40;34.00
80234;DHT22;69542;42.138;24.742;2023-04-20T03:54:15;21.40;34.00
80234;DHT22;69542;42.138;24.742;2023-04-20T03:56:40;21.40;34.00
80234;DHT22;69542;42.138;24.742;2023-04-20T03:59:06;21.40;34.10
80234;DHT22;69542;42.138;24.742;2023-04-20T04:01:32;21.40;34.10
80234;DHT22;69542;42.138;24.742;2023-04-20T04:03:57;21.50;34.10
80234;DHT22;69542;42.138;24.742;2023-04-20T04:06:25;21.50;34.10
80234;DHT22;69542;42.138;24.742;2023-04-20T04:08:51;21.40;34.00
80234;DHT22;69542;42.138;24.742;2023-04-20T04:11:17;20.30;36.40
80234;DHT22;69542;42.138;24.742;2023-04-20T04:13:43;20.10;36.80
80234;DHT22;69542;42.138;24.742;2023-04-20T04:16:11;20.00;36.80
80234;DHT22;69542;42.138;24.742;2023-04-20T04:18:37;20.10;36.60
80234;DHT22;69542;42.138;24.742;2023-04-20T04:21:06;20.20;36.50
80234;DHT22;69542;42.138;24.742;2023-04-20T04:23:34;20.20;36.30
80234;DHT22;69542;42.138;24.742;2023-04-20T04:26:02;20.30;36.20
80234;DHT22;69542;42.138;24.742;2023-04-20T04:28:29;20.30;36.10
80234;DHT22;69542;42.138;24.742;2023-04-20T04:30:56;20.30;36.10
80234;DHT22;69542;42.138;24.742;2023-04-20T04:33:22;20.30;36.00
80234;DHT22;69542;42.138;24.742;2023-04-20T04:35:49;20.30;36.00
80234;DHT22;69542;42.138;24.742;2023-04-20T04:38:15;20.40;36.00
80234;DHT22;69542;42.138;24.742;2023-04-20T04:40:41;20.40;36.00
80234;DHT22;69542;42.138;24.742;2023-04-20T04:43:10;20.40;36.10
80234;DHT22;69542;42.138;24.742;2023-04-20T04:45:37;20.40;36.10
80234;DHT22;69542;42.138;24.742;2023-04-20T04:48:06;20.40;36.30
80234;DHT22;69542;42.138;24.742;2023-04-20T04:50:34;20.40;36.40
80234;DHT22;69542;42.138;24.742;2023-04-20T04:53:00;20.30;36.30
80234;DHT22;69542;42.138;24.742;2023-04-20T04:55:26;20.30;36.30
80234;DHT22;69542;42.138;24.742;2023-04-20T04:57:52;20.30;36.40
80234;DHT22;69542;42.138;24.742;2023-04-20T05:00:18;20.20;36.60
80234;DHT22;69542;42.138;24.742;2023-04-20T05:02:43;20.20;36.50
80234;DHT22;69542;42.138;24.742;2023-04-20T05:05:09;20.20;36.60
80234;DHT22;69542;42.138;24.742;2023-04-20T05:07:35;20.20;36.50
80234;DHT22;69542;42.138;24.742;2023-04-20T05:10:03;20.20;36.60
80234;DHT22;69542;42.138;24.742;2023-04-20T05:12:29;20.20;36.70
80234;DHT22;69542;42.138;24.742;2023-04-20T05:14:55;20.20;36.60
80234;DHT22;69542;42.138;24.742;2023-04-20T05:17:20;20.20;36.50
80234;DHT22;69542;42.138;24.742;2023-04-20T05:19:46;20.20;36.50
80234;DHT22;69542;42.138;24.742;2023-04-20T05:22:12;20.30;36.60
80234;DHT22;69542;42.138;24.742;2023-04-20T05:24:38;20.30;36.40
80234;DHT22;69542;42.138;24.742;2023-04-20T05:27:04;20.30;36.50
80234;DHT22;69542;42.138;24.742;2023-04-20T05:29:30;20.30;36.60
80234;DHT22;69542;42.138;24.742;2023-04-20T05:31:56;20.30;36.50
80234;DHT22;69542;42.138;24.742;2023-04-20T05:34:22;20.30;36.60
80234;DHT22;69542;42.138;24.742;2023-04-20T05:36:50;20.30;37.70
80234;DHT22;69542;42.138;24.742;2023-04-20T05:39:16;20.30;36.90
80234;DHT22;69542;42.138;24.742;2023-04-20T05:41:42;20.30;36.60
80234;DHT22;69542;42.138;24.742;2023-04-20T05:44:10;20.40;36.50
80234;DHT22;69542;42.138;24.742;2023-04-20T05:46:36;20.50;36.20
80234;DHT22;69542;42.138;24.742;2023-04-20T05:49:01;20.60;36.10
80234;DHT22;69542;42.138;24.742;2023-04-20T05:51:27;20.70;35.90
80234;DHT22;69542;42.138;24.742;2023-04-20T05:53:57;20.80;35.70
80234;DHT22;69542;42.138;24.742;2023-04-20T05:56:23;20.90;35.50
80234;DHT22;69542;42.138;24.742;2023-04-20T05:58:49;21.00;35.40
80234;DHT22;69542;42.138;24.742;2023-04-20T06:01:15;21.00;35.20
80234;DHT22;69542;42.138;24.742;2023-04-20T06:03:40;21.10;35.20
80234;DHT22;69542;42.138;24.742;2023-04-20T06:06:06;21.20;35.10
80234;DHT22;69542;42.138;24.742;2023-04-20T06:08:32;21.20;35.00
80234;DHT22;69542;42.138;24.742;2023-04-20T06:10:58;21.30;34.90
80234;DHT22;69542;42.138;24.742;2023-04-20T06:13:24;21.30;34.80
80234;DHT22;69542;42.138;24.742;2023-04-20T06:15:50;21.30;34.70
80234;DHT22;69542;42.138;24.742;2023-04-20T06:18:17;21.40;34.70
80234;DHT22;69542;42.138;24.742;2023-04-20T06:20:43;21.50;34.60
80234;DHT22;69542;42.138;24.742;2023-04-20T06:23:09;21.50;34.50
80234;DHT22;69542;42.138;24.742;2023-04-20T06:25:36;21.70;34.50
80234;DHT22;69542;42.138;24.742;2023-04-20T06:28:03;21.80;34.40
80234;DHT22;69542;42.138;24.742;2023-04-20T06:30:29;22.00;34.40
80234;DHT22;69542;42.138;24.742;2023-04-20T06:32:54;22.10;34.10
80234;DHT22;69542;42.138;24.742;2023-04-20T06:35:21;22.20;34.10
80234;DHT22;69542;42.138;24.742;2023-04-20T06:37:50;22.20;34.00
80234;DHT22;69542;42.138;24.742;2023-04-20T06:40:16;22.30;34.00
80234;DHT22;69542;42.138;24.742;2023-04-20T06:42:42;22.30;34.00
80234;DHT22;69542;42.138;24.742;2023-04-20T06:45:08;22.30;33.90
80234;DHT22;69542;42.138;24.742;2023-04-20T06:47:34;22.40;33.90
80234;DHT22;69542;42.138;24.742;2023-04-20T06:50:02;22.50;33.90
80234;DHT22;69542;42.138;24.742;2023-04-20T06:52:29;22.60;33.90
80234;DHT22;69542;42.138;24.742;2023-04-20T06:54:57;22.70;33.70
80234;DHT22;69542;42.138;24.742;2023-04-20T06:57:24;22.70;33.70
80234;DHT22;69542;42.138;24.742;2023-04-20T06:59:49;22.70;33.60
80234;DHT22;69542;42.138;24.742;2023-04-20T07:02:15;22.70;33.60
80234;DHT22;69542;42.138;24.742;2023-04-20T07:04:41;22.70;33.60
80234;DHT22;69542;42.138;24.742;2023-04-20T07:07:07;22.70;33.60
80234;DHT22;69542;42.138;24.742;2023-04-20T07:09:32;22.70;33.50
80234;DHT22;69542;42.138;24.742;2023-04-20T07:11:58;22.80;33.60
80234;DHT22;69542;42.138;24.742;2023-04-20T07:14:24;22.80;33.50
80234;DHT22;69542;42.138;24.742;2023-04-20T07:16:53;22.80;33.50
80234;DHT22;69542;42.138;24.742;2023-04-20T07:19:19;22.80;33.50
80234;DHT22;69542;42.138;24.742;2023-04-20T07:21:45;22.90;33.60
80234;DHT22;69542;42.138;24.742;2023-04-20T07:24:11;22.80;33.50
80234;DHT22;69542;42.138;24.742;2023-04-20T07:26:37;22.90;33.50
80234;DHT22;69542;42.138;24.742;2023-04-20T07:29:03;22.90;33.40
80234;DHT22;69542;42.138;24.742;2023-04-20T07:31:31;22.90;33.50
80234;DHT22;69542;42.138;24.742;2023-04-20T07:33:57;22.90;33.40
80234;DHT22;69542;42.138;24.742;2023-04-20T07:36:23;23.00;34.40
80234;DHT22;69542;42.138;24.742;2023-04-20T07:38:48;23.00;33.40
80234;DHT22;69542;42.138;24.742;2023-04-20T07:41:15;23.00;33.40
80234;DHT22;69542;42.138;24.742;2023-04-20T07:43:40;23.00;33.30
80234;DHT22;69542;42.138;24.742;2023-04-20T07:46:06;23.00;33.40
80234;DHT22;69542;42.138;24.742;2023-04-20T07:48:36;23.10;33.70
80234;DHT22;69542;42.138;24.742;2023-04-20T07:51:02;23.10;33.50
80234;DHT22;69542;42.138;24.742;2023-04-20T07:53:28;23.10;33.70
80234;DHT22;69542;42.138;24.742;2023-04-20T07:55:54;23.10;33.60
80234;DHT22;69542;42.138;24.742;2023-04-20T07:58:20;23.10;33.60
80234;DHT22;69542;42.138;24.742;2023-04-20T08:00:48;23.20;33.70
80234;DHT22;69542;42.138;24.742;2023-04-20T08:03:14;23.10;33.50
80234;DHT22;69542;42.138;24.742;2023-04-20T08:05:40;23.20;33.50
80234;DHT22;69542;42.138;24.742;2023-04-20T08:08:06;23.20;33.50
80234;DHT22;69542;42.138;24.742;2023-04-20T08:10:32;23.20;33.50
80234;DHT22;69542;42.138;24.742;2023-04-20T08:12:58;23.20;33.40
80234;DHT22;69542;42.138;24.742;2023-04-20T08:15:23;23.20;33.50
80234;DHT22;69542;42.138;24.742;2023-04-20T08:17:49;23.20;33.50
80234;DHT22;69542;42.138;24.742;2023-04-20T08:20:17;23.20;33.50
80234;DHT22;69542;42.138;24.742;2023-04-20T08:22:43;23.20;33.50
80234;DHT22;69542;42.138;24.742;2023-04-20T08:25:09;23.30;34.60
80234;DHT22;69542;42.138;24.742;2023-04-20T08:27:37;23.30;33.40
80234;DHT22;69542;42.138;24.742;2023-04-20T08:30:03;23.40;33.40
80234;DHT22;69542;42.138;24.742;2023-04-20T08:32:29;23.30;33.40
80234;DHT22;69542;42.138;24.742;2023-04-20T08:34:55;23.30;33.30
80234;DHT22;69542;42.138;24.742;2023-04-20T08:37:21;23.40;33.40
80234;DHT22;69542;42.138;24.742;2023-04-20T08:39:47;23.30;33.30
80234;DHT22;69542;42.138;24.742;2023-04-20T08:42:13;23.30;33.30
80234;DHT22;69542;42.138;24.742;2023-04-20T08:44:41;23.30;33.40
80234;DHT22;69542;42.138;24.742;2023-04-20T08:47:09;23.30;33.50
80234;DHT22;69542;42.138;24.742;2023-04-20T08:49:37;23.30;33.50
80234;DHT22;69542;42.138;24.742;2023-04-20T08:52:06;23.30;33.50
80234;DHT22;69542;42.138;24.742;2023-04-20T08:54:36;23.20;33.50
80234;DHT22;69542;42.138;24.742;2023-04-20T08:57:03;23.20;33.50
80234;DHT22;69542;42.138;24.742;2023-04-20T08:59:29;23.20;33.80
80234;DHT22;69542;42.138;24.742;2023-04-20T09:01:55;23.10;33.40
80234;DHT22;69542;42.138;24.742;2023-04-20T09:04:25;23.10;33.40
80234;DHT22;69542;42.138;24.742;2023-04-20T09:06:54;23.00;33.40
80234;DHT22;69542;42.138;24.742;2023-04-20T09:09:22;23.00;33.40
80234;DHT22;69542;42.138;24.742;2023-04-20T09:12:05;23.00;33.40
80234;DHT22;69542;42.138;24.742;2023-04-20T09:14:45;22.90;33.40
80234;DHT22;69542;42.138;24.742;2023-04-20T09:17:12;22.90;33.40
80234;DHT22;69542;42.138;24.742;2023-04-20T09:19:39;22.90;33.40
80234;DHT22;69542;42.138;24.742;2023-04-20T09:22:05;22.90;33.40
80234;DHT22;69542;42.138;24.742;2023-04-20T09:24:32;22.80;33.30
80234;DHT22;69542;42.138;24.742;2023-04-20T09:26:59;22.80;33.30
80234;DHT22;69542;42.138;24.742;2023-04-20T09:29:26;22.80;33.40
80234;DHT22;69542;42.138;24.742;2023-04-20T09:31:53;22.80;33.40
80234;DHT22;69542;42.138;24.742;2023-04-20T09:34:19;22.80;33.40
80234;DHT22;69542;42.138;24.742;2023-04-20T09:36:47;22.80;33.40
80234;DHT22;69542;42.138;24.742;2023-04-20T09:39:19;22.70;33.40
80234;DHT22;69542;42.138;24.742;2023-04-20T09:41:46;22.70;33.30
80234;DHT22;69542;42.138;24.742;2023-04-20T09:44:13;22.70;33.40
80234;DHT22;69542;42.138;24.742;2023-04-20T09:46:40;22.70;33.40
80234;DHT22;69542;42.138;24.742;2023-04-20T09:49:08;22.70;33.40
80234;DHT22;69542;42.138;24.742;2023-04-20T09:51:39;22.70;33.40
80234;DHT22;69542;42.138;24.742;2023-04-20T09:54:12;22.60;33.30
80234;DHT22;69542;42.138;24.742;2023-04-20T09:56:38;22.60;33.30
80234;DHT22;69542;42.138;24.742;2023-04-20T09:59:07;22.60;33.30
80234;DHT22;69542;42.138;24.742;2023-04-20T10:01:34;22.60;33.30
80234;DHT22;69542;42.138;24.742;2023-04-20T10:04:05;22.60;33.30
80234;DHT22;69542;42.138;24.742;2023-04-20T10:06:32;22.60;33.30
80234;DHT22;69542;42.138;24.742;2023-04-20T10:09:03;22.60;33.30
80234;DHT22;69542;42.138;24.742;2023-04-20T10:11:37;22.60;33.30
80234;DHT22;69542;42.138;24.742;2023-04-20T10:14:17;22.50;33.20
80234;DHT22;69542;42.138;24.742;2023-04-20T10:16:44;22.50;33.20
80234;DHT22;69542;42.138;24.742;2023-04-20T10:19:11;22.50;33.30
80234;DHT22;69542;42.138;24.742;2023-04-20T10:21:48;22.50;33.20
80234;DHT22;69542;42.138;24.742;2023-04-20T10:24:15;22.50;33.30
80234;DHT22;69542;42.138;24.742;2023-04-20T10:26:52;22.50;33.30
80234;DHT22;69542;42.138;24.742;2023-04-20T10:29:25;22.50;33.30
80234;DHT22;69542;42.138;24.742;2023-04-20T10:31:52;22.50;33.30
80234;DHT22;69542;42.138;24.742;2023-04-20T10:34:34;22.50;33.30
80234;DHT22;69542;42.138;24.742;2023-04-20T10:37:11;22.50;33.30
80234;DHT22;69542;42.138;24.742;2023-04-20T10:39:44;22.50;33.30
80234;DHT22;69542;42.138;24.742;2023-04-20T10:42:11;22.40;33.30
80234;DHT22;69542;42.138;24.742;2023-04-20T10:44:53;22.40;33.20
80234;DHT22;69542;42.138;24.742;2023-04-20T10:47:31;22.40;33.20
80234;DHT22;69542;42.138;24.742;2023-04-20T10:50:15;22.40;34.20
80234;DHT22;69542;42.138;24.742;2023-04-20T10:52:42;22.40;33.20
80234;DHT22;69542;42.138;24.742;2023-04-20T10:55:24;22.40;33.20
80234;DHT22;69542;42.138;24.742;2023-04-20T10:57:50;22.40;33.20
80234;DHT22;69542;42.138;24.742;2023-04-20T11:00:18;22.40;33.20
80234;DHT22;69542;42.138;24.742;2023-04-20T11:02:48;22.40;33.20
80234;DHT22;69542;42.138;24.742;2023-04-20T11:05:15;22.40;33.20
80234;DHT22;69542;42.138;24.742;2023-04-20T11:07:58;22.40;33.10
80234;DHT22;69542;42.138;24.742;2023-04-20T11:10:38;22.40;33.10
80234;DHT22;69542;42.138;24.742;2023-04-20T11:13:04;22.40;33.10
80234;DHT22;69542;42.138;24.742;2023-04-20T11:15:33;22.40;33.10
80234;DHT22;69542;42.138;24.742;2023-04-20T11:18:10;22.40;33.20
80234;DHT22;69542;42.138;24.742;2023-04-20T11:20:37;22.40;33.20
80234;DHT22;69542;42.138;24.742;2023-04-20T11:23:03;22.30;33.20
80234;DHT22;69542;42.138;24.742;2023-04-20T11:25:30;22.40;33.30
80234;DHT22;69542;42.138;24.742;2023-04-20T11:28:08;22.30;33.40
80234;DHT22;69542;42.138;24.742;2023-04-20T11:30:39;22.30;33.50
80234;DHT22;69542;42.138;24.742;2023-04-20T11:33:05;22.30;33.50
80234;DHT22;69542;42.138;24.742;2023-04-20T11:35:41;22.30;33.50
80234;DHT22;69542;42.138;24.742;2023-04-20T11:38:08;22.30;33.50
80234;DHT22;69542;42.138;24.742;2023-04-20T11:40:34;22.30;33.60
80234;DHT22;69542;42.138;24.742;2023-04-20T11:43:00;22.30;33.50
80234;DHT22;69542;42.138;24.742;2023-04-20T11:45:27;22.30;33.50
80234;DHT22;69542;42.138;24.742;2023-04-20T11:47:58;22.30;33.40
80234;DHT22;69542;42.138;24.742;2023-04-20T11:50:24;22.40;33.50
80234;DHT22;69542;42.138;24.742;2023-04-20T11:52:50;22.40;33.40
80234;DHT22;69542;42.138;24.742;2023-04-20T11:55:16;22.40;33.50
80234;DHT22;69542;42.138;24.742;2023-04-20T11:57:42;22.40;33.40
80234;DHT22;69542;42.138;24.742;2023-04-20T12:00:08;22.40;33.30
80234;DHT22;69542;42.138;24.742;2023-04-20T12:02:34;22.50;33.40
80234;DHT22;69542;42.138;24.742;2023-04-20T12:05:00;22.50;33.40
80234;DHT22;69542;42.138;24.742;2023-04-20T12:07:26;22.50;33.30
80234;DHT22;69542;42.138;24.742;2023-04-20T12:09:52;22.60;33.30
80234;DHT22;69542;42.138;24.742;2023-04-20T12:12:18;22.60;33.20
80234;DHT22;69542;42.138;24.742;2023-04-20T12:14:44;22.70;33.20
80234;DHT22;69542;42.138;24.742;2023-04-20T12:17:10;22.60;33.10
80234;DHT22;69542;42.138;24.742;2023-04-20T12:19:36;22.70;33.10
80234;DHT22;69542;42.138;24.742;2023-04-20T12:22:04;22.80;33.10
80234;DHT22;69542;42.138;24.742;2023-04-20T12:24:29;22.80;33.20
80234;DHT22;69542;42.138;24.742;2023-04-20T12:26:55;22.80;32.90
80234;DHT22;69542;42.138;24.742;2023-04-20T12:29:22;22.90;32.90
80234;DHT22;69542;42.138;24.742;2023-04-20T12:31:47;22.90;32.90
80234;DHT22;69542;42.138;24.742;2023-04-20T12:34:13;23.00;32.80
80234;DHT22;69542;42.138;24.742;2023-04-20T12:36:39;23.00;32.80
80234;DHT22;69542;42.138;24.742;2023-04-20T12:39:05;23.00;32.70
80234;DHT22;69542;42.138;24.742;2023-04-20T12:41:31;23.10;32.60
80234;DHT22;69542;42.138;24.742;2023-04-20T12:43:57;23.10;32.50
80234;DHT22;69542;42.138;24.742;2023-04-20T12:46:23;23.10;32.50
80234;DHT22;69542;42.138;24.742;2023-04-20T12:48:49;23.10;32.50
80234;DHT22;69542;42.138;24.742;2023-04-20T12:51:15;23.20;32.50
80234;DHT22;69542;42.138;24.742;2023-04-20T12:53:41;23.10;32.30
80234;DHT22;69542;42.138;24.742;2023-04-20T12:56:08;23.20;32.40
80234;DHT22;69542;42.138;24.742;2023-04-20T12:58:34;23.30;32.30
80234;DHT22;69542;42.138;24.742;2023-04-20T13:01:00;23.30;32.30
80234;DHT22;69542;42.138;24.742;2023-04-20T13:03:26;23.30;32.20
80234;DHT22;69542;42.138;24.742;2023-04-20T13:05:52;23.30;32.00
80234;DHT22;69542;42.138;24.742;2023-04-20T13:08:18;23.30;31.90
80234;DHT22;69542;42.138;24.742;2023-04-20T13:10:44;23.40;31.90
80234;DHT22;69542;42.138;24.742;2023-04-20T13:13:10;23.40;32.00
80234;DHT22;69542;42.138;24.742;2023-04-20T13:15:36;23.40;32.00
80234;DHT22;69542;42.138;24.742;2023-04-20T13:18:03;23.50;32.10
80234;DHT22;69542;42.138;24.742;2023-04-20T13:20:29;23.50;32.10
80234;DHT22;69542;42.138;24.742;2023-04-20T13:22:56;23.50;32.10
80234;DHT22;69542;42.138;24.742;2023-04-20T13:25:25;23.60;32.20
80234;DHT22;69542;42.138;24.742;2023-04-20T13:27:53;23.60;32.40
80234;DHT22;69542;42.138;24.742;2023-04-20T13:30:19;23.70;32.40
80234;DHT22;69542;42.138;24.742;2023-04-20T13:32:45;23.70;32.40
80234;DHT22;69542;42.138;24.742;2023-04-20T13:35:14;23.70;32.50
80234;DHT22;69542;42.138;24.742;2023-04-20T13:37:41;23.70;32.50
80234;DHT22;69542;42.138;24.742;2023-04-20T13:40:08;23.70;32.50
80234;DHT22;69542;42.138;24.742;2023-04-20T13:42:34;23.70;32.50
80234;DHT22;69542;42.138;24.742;2023-04-20T13:45:00;23.80;32.60
80234;DHT22;69542;42.138;24.742;2023-04-20T13:47:26;23.80;32.60
80234;DHT22;69542;42.138;24.742;2023-04-20T13:49:52;23.80;32.70
80234;DHT22;69542;42.138;24.742;2023-04-20T13:52:18;23.80;32.70
80234;DHT22;69542;42.138;24.742;2023-04-20T13:54:44;23.80;32.70
80234;DHT22;69542;42.138;24.742;2023-04-20T13:57:09;23.80;32.70
80234;DHT22;69542;42.138;24.742;2023-04-20T13:59:35;23.80;33.70
80234;DHT22;69542;42.138;24.742;2023-04-20T14:02:01;23.90;32.80
80234;DHT22;69542;42.138;24.742;2023-04-20T14:04:27;24.00;32.80
80234;DHT22;69542;42.138;24.742;2023-04-20T14:06:53;23.90;32.80
80234;DHT22;69542;42.138;24.742;2023-04-20T14:09:19;24.00;32.90
80234;DHT22;69542;42.138;24.742;2023-04-20T14:11:45;24.00;32.90
80234;DHT22;69542;42.138;24.742;2023-04-20T14:14:11;24.00;32.90
80234;DHT22;69542;42.138;24.742;2023-04-20T14:16:44;24.00;32.80
80234;DHT22;69542;42.138;24.742;2023-04-20T14:19:10;24.00;32.80
80234;DHT22;69542;42.138;24.742;2023-04-20T14:21:36;24.00;32.90
80234;DHT22;69542;42.138;24.742;2023-04-20T14:24:03;24.00;33.00
80234;DHT22;69542;42.138;24.742;2023-04-20T14:26:28;24.00;33.00
80234;DHT22;69542;42.138;24.742;2023-04-20T14:28:54;24.00;32.90
80234;DHT22;69542;42.138;24.742;2023-04-20T14:31:20;24.00;32.90
80234;DHT22;69542;42.138;24.742;2023-04-20T14:33:46;24.00;32.90
80234;DHT22;69542;42.138;24.742;2023-04-20T14:36:12;24.00;32.80
80234;DHT22;69542;42.138;24.742;2023-04-20T14:38:37;24.00;32.90
80234;DHT22;69542;42.138;24.742;2023-04-20T14:41:03;24.00;32.80
80234;DHT22;69542;42.138;24.742;2023-04-20T14:43:29;23.90;32.80
80234;DHT22;69542;42.138;24.742;2023-04-20T14:45:56;23.90;33.80
80234;DHT22;69542;42.138;24.742;2023-04-20T14:48:25;23.90;32.80
80234;DHT22;69542;42.138;24.742;2023-04-20T14:50:52;23.80;32.70
80234;DHT22;69542;42.138;24.742;2023-04-20T14:53:19;23.80;32.70
80234;DHT22;69542;42.138;24.742;2023-04-20T14:55:45;23.80;32.70
80234;DHT22;69542;42.138;24.742;2023-04-20T14:58:11;23.80;32.60
80234;DHT22;69542;42.138;24.742;2023-04-20T15:00:37;23.80;32.70
80234;DHT22;69542;42.138;24.742;2023-04-20T15:03:02;23.80;32.60
80234;DHT22;69542;42.138;24.742;2023-04-20T15:05:28;23.80;32.60
80234;DHT22;69542;42.138;24.742;2023-04-20T15:07:56;23.80;32.60
80234;DHT22;69542;42.138;24.742;2023-04-20T15:10:22;23.80;32.60
80234;DHT22;69542;42.138;24.742;2023-04-20T15:12:48;23.80;33.50
80234;DHT22;69542;42.138;24.742;2023-04-20T15:15:14;23.80;32.50